sensor_id;sensor_type;location;lat;lon;timestamp;P1;durP1;ratioP1;P2;durP2;ratioP2
20181;SDS011;10250;50.756;6.172;2022-12-08T00:00:43;13.37;;;3.73;;
20181;SDS011;10250;50.756;6.172;2022-12-08T00:02:44;9.70;;;2.97;;
20181;SDS011;10250;50.756;6.172;2022-12-08T00:04:45;16.07;;;3.87;;
20181;SDS011;10250;50.756;6.172;2022-12-08T00:07:04;12.00;;;3.13;;
20181;SDS011;10250;50.756;6.172;2022-12-08T00:09:31;11.93;;;3.43;;
20181;SDS011;10250;50.756;6.172;2022-12-08T00:11:33;11.50;;;3.13;;
20181;SDS011;10250;50.756;6.172;2022-12-08T00:13:34;16.30;;;4.17;;
20181;SDS011;10250;50.756;6.172;2022-12-08T00:15:35;12.50;;;3.60;;
20181;SDS011;10250;50.756;6.172;2022-12-08T00:17:36;10.50;;;2.93;;
20181;SDS011;10250;50.756;6.172;2022-12-08T00:19:37;13.00;;;3.57;;
20181;SDS011;10250;50.756;6.172;2022-12-08T00:21:38;9.43;;;2.90;;
20181;SDS011;10250;50.756;6.172;2022-12-08T00:23:39;12.83;;;3.30;;
20181;SDS011;10250;50.756;6.172;2022-12-08T00:25:40;12.67;;;3.60;;
20181;SDS011;10250;50.756;6.172;2022-12-08T00:27:41;11.67;;;3.47;;
20181;SDS011;10250;50.756;6.172;2022-12-08T00:29:43;14.43;;;3.33;;
20181;SDS011;10250;50.756;6.172;2022-12-08T00:31:44;10.43;;;2.80;;
20181;SDS011;10250;50.756;6.172;2022-12-08T00:33:45;15.77;;;3.43;;
20181;SDS011;10250;50.756;6.172;2022-12-08T00:35:46;12.63;;;3.60;;
20181;SDS011;10250;50.756;6.172;2022-12-08T00:37:47;12.17;;;3.47;;
20181;SDS011;10250;50.756;6.172;2022-12-08T00:39:48;12.13;;;3.13;;
20181;SDS011;10250;50.756;6.172;2022-12-08T00:41:49;11.20;;;3.70;;
20181;SDS011;10250;50.756;6.172;2022-12-08T00:44:10;11.77;;;3.40;;
20181;SDS011;10250;50.756;6.172;2022-12-08T00:46:11;12.40;;;3.17;;
20181;SDS011;10250;50.756;6.172;2022-12-08T00:48:12;13.83;;;2.97;;
20181;SDS011;10250;50.756;6.172;2022-12-08T00:50:13;12.10;;;2.63;;
20181;SDS011;10250;50.756;6.172;2022-12-08T00:52:14;11.37;;;3.23;;
20181;SDS011;10250;50.756;6.172;2022-12-08T00:54:15;12.90;;;3.83;;
20181;SDS011;10250;50.756;6.172;2022-12-08T00:56:17;12.27;;;3.50;;
20181;SDS011;10250;50.756;6.172;2022-12-08T00:58:18;11.17;;;2.20;;
20181;SDS011;10250;50.756;6.172;2022-12-08T01:00:19;9.70;;;2.67;;
20181;SDS011;10250;50.756;6.172;2022-12-08T01:02:20;10.20;;;2.97;;
20181;SDS011;10250;50.756;6.172;2022-12-08T01:04:21;12.63;;;3.03;;
20181;SDS011;10250;50.756;6.172;2022-12-08T01:06:22;11.33;;;2.80;;
20181;SDS011;10250;50.756;6.172;2022-12-08T01:08:23;12.90;;;3.03;;
20181;SDS011;10250;50.756;6.172;2022-12-08T01:10:23;12.40;;;2.87;;
20181;SDS011;10250;50.756;6.172;2022-12-08T01:12:25;11.00;;;3.13;;
20181;SDS011;10250;50.756;6.172;2022-12-08T01:14:28;11.83;;;3.20;;
20181;SDS011;10250;50.756;6.172;2022-12-08T01:16:33;9.60;;;2.60;;
20181;SDS011;10250;50.756;6.172;2022-12-08T01:18:34;8.70;;;2.53;;
20181;SDS011;10250;50.756;6.172;2022-12-08T01:20:35;12.43;;;3.17;;
20181;SDS011;10250;50.756;6.172;2022-12-08T01:22:36;12.53;;;3.27;;
20181;SDS011;10250;50.756;6.172;2022-12-08T01:24:37;13.20;;;3.63;;
20181;SDS011;10250;50.756;6.172;2022-12-08T01:26:38;10.70;;;2.87;;
20181;SDS011;10250;50.756;6.172;2022-12-08T01:28:39;12.17;;;3.13;;
20181;SDS011;10250;50.756;6.172;2022-12-08T01:30:41;13.20;;;2.93;;
20181;SDS011;10250;50.756;6.172;2022-12-08T01:32:41;11.67;;;3.27;;
20181;SDS011;10250;50.756;6.172;2022-12-08T01:34:42;11.10;;;3.20;;
20181;SDS011;10250;50.756;6.172;2022-12-08T01:36:43;12.93;;;3.10;;
20181;SDS011;10250;50.756;6.172;2022-12-08T01:38:44;10.73;;;2.77;;
20181;SDS011;10250;50.756;6.172;2022-12-08T01:40:45;9.97;;;2.87;;
20181;SDS011;10250;50.756;6.172;2022-12-08T01:42:47;11.53;;;2.73;;
20181;SDS011;10250;50.756;6.172;2022-12-08T01:44:51;11.50;;;2.73;;
20181;SDS011;10250;50.756;6.172;2022-12-08T01:46:52;10.90;;;3.33;;
20181;SDS011;10250;50.756;6.172;2022-12-08T01:51:00;12.93;;;3.40;;
20181;SDS011;10250;50.756;6.172;2022-12-08T01:53:05;12.87;;;3.63;;
20181;SDS011;10250;50.756;6.172;2022-12-08T01:55:15;13.20;;;3.10;;
20181;SDS011;10250;50.756;6.172;2022-12-08T01:57:19;13.63;;;3.53;;
20181;SDS011;10250;50.756;6.172;2022-12-08T01:59:21;14.70;;;3.17;;
20181;SDS011;10250;50.756;6.172;2022-12-08T02:01:23;12.30;;;3.10;;
20181;SDS011;10250;50.756;6.172;2022-12-08T02:03:28;13.57;;;3.47;;
20181;SDS011;10250;50.756;6.172;2022-12-08T02:05:32;11.67;;;3.20;;
20181;SDS011;10250;50.756;6.172;2022-12-08T02:07:34;13.57;;;3.50;;
20181;SDS011;10250;50.756;6.172;2022-12-08T02:09:35;11.57;;;3.07;;
20181;SDS011;10250;50.756;6.172;2022-12-08T02:11:36;10.27;;;2.77;;
20181;SDS011;10250;50.756;6.172;2022-12-08T02:13:37;9.33;;;2.40;;
20181;SDS011;10250;50.756;6.172;2022-12-08T02:26:54;11.33;;;3.03;;
20181;SDS011;10250;50.756;6.172;2022-12-08T02:41:59;13.10;;;3.80;;
20181;SDS011;10250;50.756;6.172;2022-12-08T02:44:44;10.57;;;3.10;;
20181;SDS011;10250;50.756;6.172;2022-12-08T02:46:27;11.93;;;3.30;;
20181;SDS011;10250;50.756;6.172;2022-12-08T02:48:29;11.03;;;3.33;;
20181;SDS011;10250;50.756;6.172;2022-12-08T02:50:30;12.83;;;3.60;;
20181;SDS011;10250;50.756;6.172;2022-12-08T02:54:32;11.43;;;3.03;;
20181;SDS011;10250;50.756;6.172;2022-12-08T03:03:19;11.07;;;2.73;;
20181;SDS011;10250;50.756;6.172;2022-12-08T03:07:37;11.53;;;3.33;;
20181;SDS011;10250;50.756;6.172;2022-12-08T03:09:45;14.90;;;3.93;;
20181;SDS011;10250;50.756;6.172;2022-12-08T03:12:12;10.90;;;3.23;;
20181;SDS011;10250;50.756;6.172;2022-12-08T03:14:09;11.53;;;3.43;;
20181;SDS011;10250;50.756;6.172;2022-12-08T03:16:14;10.30;;;3.00;;
20181;SDS011;10250;50.756;6.172;2022-12-08T03:18:16;15.17;;;3.73;;
20181;SDS011;10250;50.756;6.172;2022-12-08T03:20:20;13.80;;;3.57;;
20181;SDS011;10250;50.756;6.172;2022-12-08T03:22:22;18.50;;;3.77;;
20181;SDS011;10250;50.756;6.172;2022-12-08T03:24:24;16.27;;;4.77;;
20181;SDS011;10250;50.756;6.172;2022-12-08T03:28:26;14.90;;;3.87;;
20181;SDS011;10250;50.756;6.172;2022-12-08T03:30:28;14.87;;;4.00;;
20181;SDS011;10250;50.756;6.172;2022-12-08T03:32:36;16.37;;;4.40;;
20181;SDS011;10250;50.756;6.172;2022-12-08T03:34:39;13.73;;;3.97;;
20181;SDS011;10250;50.756;6.172;2022-12-08T03:36:42;14.10;;;3.77;;
20181;SDS011;10250;50.756;6.172;2022-12-08T03:38:44;14.47;;;4.23;;
20181;SDS011;10250;50.756;6.172;2022-12-08T03:40:45;14.73;;;4.40;;
20181;SDS011;10250;50.756;6.172;2022-12-08T03:43:09;13.20;;;4.03;;
20181;SDS011;10250;50.756;6.172;2022-12-08T03:45:10;14.97;;;3.93;;
20181;SDS011;10250;50.756;6.172;2022-12-08T03:47:11;14.37;;;4.17;;
20181;SDS011;10250;50.756;6.172;2022-12-08T03:49:12;22.93;;;6.03;;
20181;SDS011;10250;50.756;6.172;2022-12-08T03:51:13;16.67;;;5.10;;
20181;SDS011;10250;50.756;6.172;2022-12-08T03:53:14;14.57;;;4.27;;
20181;SDS011;10250;50.756;6.172;2022-12-08T03:55:15;15.43;;;4.53;;
20181;SDS011;10250;50.756;6.172;2022-12-08T03:57:16;16.77;;;4.50;;
20181;SDS011;10250;50.756;6.172;2022-12-08T03:59:17;21.70;;;4.97;;
20181;SDS011;10250;50.756;6.172;2022-12-08T04:01:18;18.07;;;5.43;;
20181;SDS011;10250;50.756;6.172;2022-12-08T04:03:20;13.53;;;4.27;;
20181;SDS011;10250;50.756;6.172;2022-12-08T04:05:21;16.00;;;4.63;;
20181;SDS011;10250;50.756;6.172;2022-12-08T04:07:21;15.10;;;4.50;;
20181;SDS011;10250;50.756;6.172;2022-12-08T04:09:22;16.93;;;5.33;;
20181;SDS011;10250;50.756;6.172;2022-12-08T04:11:23;18.07;;;5.30;;
20181;SDS011;10250;50.756;6.172;2022-12-08T04:13:24;16.57;;;5.30;;
20181;SDS011;10250;50.756;6.172;2022-12-08T04:15:25;16.57;;;4.83;;
20181;SDS011;10250;50.756;6.172;2022-12-08T04:17:26;16.10;;;4.63;;
20181;SDS011;10250;50.756;6.172;2022-12-08T04:19:27;16.27;;;4.70;;
20181;SDS011;10250;50.756;6.172;2022-12-08T04:21:28;15.90;;;5.00;;
20181;SDS011;10250;50.756;6.172;2022-12-08T04:23:29;16.23;;;4.60;;
20181;SDS011;10250;50.756;6.172;2022-12-08T04:25:30;17.27;;;4.80;;
20181;SDS011;10250;50.756;6.172;2022-12-08T04:27:31;16.17;;;4.50;;
20181;SDS011;10250;50.756;6.172;2022-12-08T04:29:32;15.10;;;4.70;;
20181;SDS011;10250;50.756;6.172;2022-12-08T04:31:33;18.43;;;5.73;;
20181;SDS011;10250;50.756;6.172;2022-12-08T04:33:34;17.50;;;4.60;;
20181;SDS011;10250;50.756;6.172;2022-12-08T04:35:35;17.87;;;4.40;;
20181;SDS011;10250;50.756;6.172;2022-12-08T04:37:36;15.03;;;4.53;;
20181;SDS011;10250;50.756;6.172;2022-12-08T04:39:37;13.63;;;3.63;;
20181;SDS011;10250;50.756;6.172;2022-12-08T04:41:38;15.00;;;4.10;;
20181;SDS011;10250;50.756;6.172;2022-12-08T04:43:39;15.07;;;4.50;;
20181;SDS011;10250;50.756;6.172;2022-12-08T04:45:41;17.70;;;4.30;;
20181;SDS011;10250;50.756;6.172;2022-12-08T04:47:42;17.63;;;4.77;;
20181;SDS011;10250;50.756;6.172;2022-12-08T04:49:43;14.20;;;4.13;;
20181;SDS011;10250;50.756;6.172;2022-12-08T04:51:44;13.23;;;3.73;;
20181;SDS011;10250;50.756;6.172;2022-12-08T04:53:45;15.83;;;4.47;;
20181;SDS011;10250;50.756;6.172;2022-12-08T04:55:46;13.30;;;3.87;;
20181;SDS011;10250;50.756;6.172;2022-12-08T04:57:48;17.00;;;5.13;;
20181;SDS011;10250;50.756;6.172;2022-12-08T04:59:49;12.60;;;3.77;;
20181;SDS011;10250;50.756;6.172;2022-12-08T05:01:50;16.27;;;4.87;;
20181;SDS011;10250;50.756;6.172;2022-12-08T05:03:51;14.70;;;4.30;;
20181;SDS011;10250;50.756;6.172;2022-12-08T05:05:52;12.40;;;3.53;;
20181;SDS011;10250;50.756;6.172;2022-12-08T05:07:53;15.30;;;4.77;;
20181;SDS011;10250;50.756;6.172;2022-12-08T05:09:54;15.03;;;4.27;;
20181;SDS011;10250;50.756;6.172;2022-12-08T05:11:55;18.53;;;4.90;;
20181;SDS011;10250;50.756;6.172;2022-12-08T05:13:58;17.53;;;4.27;;
20181;SDS011;10250;50.756;6.172;2022-12-08T05:16:06;15.63;;;3.97;;
20181;SDS011;10250;50.756;6.172;2022-12-08T05:18:07;10.67;;;3.33;;
20181;SDS011;10250;50.756;6.172;2022-12-08T05:20:08;18.13;;;4.13;;
20181;SDS011;10250;50.756;6.172;2022-12-08T05:22:10;13.43;;;3.33;;
20181;SDS011;10250;50.756;6.172;2022-12-08T05:24:11;10.80;;;3.10;;
20181;SDS011;10250;50.756;6.172;2022-12-08T05:26:12;14.30;;;3.73;;
20181;SDS011;10250;50.756;6.172;2022-12-08T05:28:13;11.67;;;3.23;;
20181;SDS011;10250;50.756;6.172;2022-12-08T05:30:14;14.97;;;4.00;;
20181;SDS011;10250;50.756;6.172;2022-12-08T05:32:15;17.93;;;4.40;;
20181;SDS011;10250;50.756;6.172;2022-12-08T05:34:16;15.07;;;4.43;;
20181;SDS011;10250;50.756;6.172;2022-12-08T05:36:17;13.07;;;4.23;;
20181;SDS011;10250;50.756;6.172;2022-12-08T05:38:19;15.93;;;3.97;;
20181;SDS011;10250;50.756;6.172;2022-12-08T05:40:20;12.33;;;4.17;;
20181;SDS011;10250;50.756;6.172;2022-12-08T05:42:20;15.13;;;4.30;;
20181;SDS011;10250;50.756;6.172;2022-12-08T05:44:24;15.07;;;3.53;;
20181;SDS011;10250;50.756;6.172;2022-12-08T05:46:26;14.60;;;3.70;;
20181;SDS011;10250;50.756;6.172;2022-12-08T05:48:27;15.57;;;3.60;;
20181;SDS011;10250;50.756;6.172;2022-12-08T05:50:28;11.93;;;3.80;;
20181;SDS011;10250;50.756;6.172;2022-12-08T05:52:29;13.93;;;3.63;;
20181;SDS011;10250;50.756;6.172;2022-12-08T05:54:30;15.07;;;4.20;;
20181;SDS011;10250;50.756;6.172;2022-12-08T05:56:31;12.97;;;4.07;;
20181;SDS011;10250;50.756;6.172;2022-12-08T05:58:32;13.53;;;3.40;;
20181;SDS011;10250;50.756;6.172;2022-12-08T06:00:33;11.27;;;3.60;;
20181;SDS011;10250;50.756;6.172;2022-12-08T06:02:34;18.63;;;4.23;;
20181;SDS011;10250;50.756;6.172;2022-12-08T06:04:35;14.33;;;3.67;;
20181;SDS011;10250;50.756;6.172;2022-12-08T06:06:36;14.07;;;4.47;;
20181;SDS011;10250;50.756;6.172;2022-12-08T06:08:37;17.90;;;3.83;;
20181;SDS011;10250;50.756;6.172;2022-12-08T06:10:39;13.67;;;3.90;;
20181;SDS011;10250;50.756;6.172;2022-12-08T06:12:40;15.17;;;4.43;;
20181;SDS011;10250;50.756;6.172;2022-12-08T06:14:41;12.60;;;3.70;;
20181;SDS011;10250;50.756;6.172;2022-12-08T06:16:42;17.50;;;4.57;;
20181;SDS011;10250;50.756;6.172;2022-12-08T06:18:43;23.27;;;4.53;;
20181;SDS011;10250;50.756;6.172;2022-12-08T06:20:44;17.50;;;4.00;;
20181;SDS011;10250;50.756;6.172;2022-12-08T06:22:45;16.10;;;3.93;;
20181;SDS011;10250;50.756;6.172;2022-12-08T06:24:46;14.33;;;4.13;;
20181;SDS011;10250;50.756;6.172;2022-12-08T06:26:47;15.23;;;4.20;;
20181;SDS011;10250;50.756;6.172;2022-12-08T06:28:48;18.10;;;4.47;;
20181;SDS011;10250;50.756;6.172;2022-12-08T06:30:49;12.47;;;3.90;;
20181;SDS011;10250;50.756;6.172;2022-12-08T06:32:50;13.40;;;4.03;;
20181;SDS011;10250;50.756;6.172;2022-12-08T06:34:51;14.07;;;3.27;;
20181;SDS011;10250;50.756;6.172;2022-12-08T06:36:52;16.17;;;3.90;;
20181;SDS011;10250;50.756;6.172;2022-12-08T06:38:53;12.93;;;3.30;;
20181;SDS011;10250;50.756;6.172;2022-12-08T06:40:55;12.13;;;3.23;;
20181;SDS011;10250;50.756;6.172;2022-12-08T06:42:56;13.10;;;3.60;;
20181;SDS011;10250;50.756;6.172;2022-12-08T06:44:57;16.07;;;4.43;;
20181;SDS011;10250;50.756;6.172;2022-12-08T06:46:58;9.93;;;3.13;;
20181;SDS011;10250;50.756;6.172;2022-12-08T06:48:59;14.40;;;3.40;;
20181;SDS011;10250;50.756;6.172;2022-12-08T06:51:07;14.20;;;4.03;;
20181;SDS011;10250;50.756;6.172;2022-12-08T06:53:10;17.17;;;3.83;;
20181;SDS011;10250;50.756;6.172;2022-12-08T06:55:11;13.23;;;3.63;;
20181;SDS011;10250;50.756;6.172;2022-12-08T06:57:12;12.23;;;3.77;;
20181;SDS011;10250;50.756;6.172;2022-12-08T06:59:13;13.83;;;3.60;;
20181;SDS011;10250;50.756;6.172;2022-12-08T07:01:14;13.40;;;3.60;;
20181;SDS011;10250;50.756;6.172;2022-12-08T07:03:15;12.03;;;3.63;;
20181;SDS011;10250;50.756;6.172;2022-12-08T07:05:16;11.87;;;3.63;;
20181;SDS011;10250;50.756;6.172;2022-12-08T07:07:17;15.07;;;4.00;;
20181;SDS011;10250;50.756;6.172;2022-12-08T07:09:18;12.37;;;3.50;;
20181;SDS011;10250;50.756;6.172;2022-12-08T07:11:19;12.93;;;3.73;;
20181;SDS011;10250;50.756;6.172;2022-12-08T07:13:20;12.53;;;3.50;;
20181;SDS011;10250;50.756;6.172;2022-12-08T07:15:21;13.10;;;3.73;;
20181;SDS011;10250;50.756;6.172;2022-12-08T07:17:25;13.90;;;4.27;;
20181;SDS011;10250;50.756;6.172;2022-12-08T07:19:26;14.87;;;3.90;;
20181;SDS011;10250;50.756;6.172;2022-12-08T07:21:27;13.57;;;3.57;;
20181;SDS011;10250;50.756;6.172;2022-12-08T07:23:28;10.77;;;3.23;;
20181;SDS011;10250;50.756;6.172;2022-12-08T07:25:29;20.57;;;4.40;;
20181;SDS011;10250;50.756;6.172;2022-12-08T07:27:30;9.63;;;3.07;;
20181;SDS011;10250;50.756;6.172;2022-12-08T07:29:31;12.13;;;3.90;;
20181;SDS011;10250;50.756;6.172;2022-12-08T07:31:32;12.73;;;3.60;;
20181;SDS011;10250;50.756;6.172;2022-12-08T07:33:33;14.37;;;4.03;;
20181;SDS011;10250;50.756;6.172;2022-12-08T07:35:35;12.23;;;3.03;;
20181;SDS011;10250;50.756;6.172;2022-12-08T07:37:36;13.73;;;3.40;;
20181;SDS011;10250;50.756;6.172;2022-12-08T07:39:37;14.10;;;4.30;;
20181;SDS011;10250;50.756;6.172;2022-12-08T07:41:38;15.37;;;4.23;;
20181;SDS011;10250;50.756;6.172;2022-12-08T07:43:40;12.43;;;3.40;;
20181;SDS011;10250;50.756;6.172;2022-12-08T07:45:41;11.67;;;3.57;;
20181;SDS011;10250;50.756;6.172;2022-12-08T07:47:42;12.23;;;4.03;;
20181;SDS011;10250;50.756;6.172;2022-12-08T07:49:43;10.47;;;3.13;;
20181;SDS011;10250;50.756;6.172;2022-12-08T07:51:44;13.77;;;3.60;;
20181;SDS011;10250;50.756;6.172;2022-12-08T07:53:46;10.20;;;2.83;;
20181;SDS011;10250;50.756;6.172;2022-12-08T07:55:47;12.60;;;3.77;;
20181;SDS011;10250;50.756;6.172;2022-12-08T07:57:48;11.73;;;3.13;;
20181;SDS011;10250;50.756;6.172;2022-12-08T07:59:49;16.47;;;4.27;;
20181;SDS011;10250;50.756;6.172;2022-12-08T08:01:50;10.07;;;2.70;;
20181;SDS011;10250;50.756;6.172;2022-12-08T08:03:51;13.83;;;3.97;;
20181;SDS011;10250;50.756;6.172;2022-12-08T08:05:53;17.03;;;4.07;;
20181;SDS011;10250;50.756;6.172;2022-12-08T08:07:54;14.53;;;3.70;;
20181;SDS011;10250;50.756;6.172;2022-12-08T08:09:55;12.53;;;3.77;;
20181;SDS011;10250;50.756;6.172;2022-12-08T08:11:56;11.77;;;3.37;;
20181;SDS011;10250;50.756;6.172;2022-12-08T08:13:57;10.33;;;2.77;;
20181;SDS011;10250;50.756;6.172;2022-12-08T08:16:08;11.33;;;3.37;;
20181;SDS011;10250;50.756;6.172;2022-12-08T08:18:09;11.10;;;3.20;;
20181;SDS011;10250;50.756;6.172;2022-12-08T08:20:10;17.60;;;4.07;;
20181;SDS011;10250;50.756;6.172;2022-12-08T08:22:11;8.30;;;2.53;;
20181;SDS011;10250;50.756;6.172;2022-12-08T08:24:15;9.93;;;3.03;;
20181;SDS011;10250;50.756;6.172;2022-12-08T08:26:16;10.93;;;2.97;;
20181;SDS011;10250;50.756;6.172;2022-12-08T08:28:17;9.93;;;2.77;;
20181;SDS011;10250;50.756;6.172;2022-12-08T08:30:18;9.83;;;3.03;;
20181;SDS011;10250;50.756;6.172;2022-12-08T08:32:19;9.30;;;2.90;;
20181;SDS011;10250;50.756;6.172;2022-12-08T08:34:20;8.50;;;2.93;;
20181;SDS011;10250;50.756;6.172;2022-12-08T08:36:21;10.53;;;2.70;;
20181;SDS011;10250;50.756;6.172;2022-12-08T08:38:22;9.80;;;2.57;;
20181;SDS011;10250;50.756;6.172;2022-12-08T08:40:23;11.33;;;3.00;;
20181;SDS011;10250;50.756;6.172;2022-12-08T08:42:24;11.47;;;3.50;;
20181;SDS011;10250;50.756;6.172;2022-12-08T08:44:25;12.20;;;3.27;;
20181;SDS011;10250;50.756;6.172;2022-12-08T08:46:27;15.27;;;4.17;;
20181;SDS011;10250;50.756;6.172;2022-12-08T08:48:28;14.37;;;3.43;;
20181;SDS011;10250;50.756;6.172;2022-12-08T08:50:29;12.80;;;3.33;;
20181;SDS011;10250;50.756;6.172;2022-12-08T08:52:30;12.63;;;3.57;;
20181;SDS011;10250;50.756;6.172;2022-12-08T08:54:31;17.33;;;4.53;;
20181;SDS011;10250;50.756;6.172;2022-12-08T08:56:32;13.27;;;4.17;;
20181;SDS011;10250;50.756;6.172;2022-12-08T08:58:33;11.43;;;3.10;;
20181;SDS011;10250;50.756;6.172;2022-12-08T09:00:34;13.07;;;3.67;;
20181;SDS011;10250;50.756;6.172;2022-12-08T09:02:36;13.33;;;3.50;;
20181;SDS011;10250;50.756;6.172;2022-12-08T09:04:37;13.90;;;4.07;;
20181;SDS011;10250;50.756;6.172;2022-12-08T09:06:38;14.20;;;4.57;;
20181;SDS011;10250;50.756;6.172;2022-12-08T09:08:39;15.90;;;4.53;;
20181;SDS011;10250;50.756;6.172;2022-12-08T09:10:40;15.40;;;3.93;;
20181;SDS011;10250;50.756;6.172;2022-12-08T09:12:41;15.13;;;4.30;;
20181;SDS011;10250;50.756;6.172;2022-12-08T09:14:42;16.63;;;4.70;;
20181;SDS011;10250;50.756;6.172;2022-12-08T09:16:44;14.00;;;4.00;;
20181;SDS011;10250;50.756;6.172;2022-12-08T09:18:45;16.03;;;4.30;;
20181;SDS011;10250;50.756;6.172;2022-12-08T09:20:48;13.60;;;4.07;;
20181;SDS011;10250;50.756;6.172;2022-12-08T09:22:49;15.00;;;3.37;;
20181;SDS011;10250;50.756;6.172;2022-12-08T09:24:50;14.80;;;4.27;;
20181;SDS011;10250;50.756;6.172;2022-12-08T09:26:51;13.97;;;3.90;;
20181;SDS011;10250;50.756;6.172;2022-12-08T09:28:53;11.30;;;3.23;;
20181;SDS011;10250;50.756;6.172;2022-12-08T09:30:54;13.73;;;4.23;;
20181;SDS011;10250;50.756;6.172;2022-12-08T09:32:55;14.30;;;4.20;;
20181;SDS011;10250;50.756;6.172;2022-12-08T09:34:56;15.93;;;4.77;;
20181;SDS011;10250;50.756;6.172;2022-12-08T09:36:57;13.77;;;3.70;;
20181;SDS011;10250;50.756;6.172;2022-12-08T09:38:58;17.27;;;5.13;;
20181;SDS011;10250;50.756;6.172;2022-12-08T09:40:59;17.33;;;4.27;;
20181;SDS011;10250;50.756;6.172;2022-12-08T09:44:04;12.87;;;3.57;;
20181;SDS011;10250;50.756;6.172;2022-12-08T09:45:32;9.50;;;2.93;;
20181;SDS011;10250;50.756;6.172;2022-12-08T09:49:49;11.77;;;4.13;;
20181;SDS011;10250;50.756;6.172;2022-12-08T09:51:52;15.03;;;4.10;;
20181;SDS011;10250;50.756;6.172;2022-12-08T09:53:55;14.57;;;4.67;;
20181;SDS011;10250;50.756;6.172;2022-12-08T09:55:58;13.07;;;3.47;;
20181;SDS011;10250;50.756;6.172;2022-12-08T09:58:00;14.97;;;3.97;;
20181;SDS011;10250;50.756;6.172;2022-12-08T10:00:03;12.53;;;3.33;;
20181;SDS011;10250;50.756;6.172;2022-12-08T10:02:12;13.53;;;4.57;;
20181;SDS011;10250;50.756;6.172;2022-12-08T10:04:34;12.30;;;3.47;;
20181;SDS011;10250;50.756;6.172;2022-12-08T10:06:40;14.43;;;4.30;;
20181;SDS011;10250;50.756;6.172;2022-12-08T10:08:44;14.03;;;4.47;;
20181;SDS011;10250;50.756;6.172;2022-12-08T10:10:53;14.13;;;3.80;;
20181;SDS011;10250;50.756;6.172;2022-12-08T10:17:23;13.67;;;3.63;;
20181;SDS011;10250;50.756;6.172;2022-12-08T10:19:25;14.37;;;4.77;;
20181;SDS011;10250;50.756;6.172;2022-12-08T10:21:27;14.00;;;4.00;;
20181;SDS011;10250;50.756;6.172;2022-12-08T10:23:34;17.97;;;4.47;;
20181;SDS011;10250;50.756;6.172;2022-12-08T10:25:37;14.93;;;4.43;;
20181;SDS011;10250;50.756;6.172;2022-12-08T10:27:39;12.70;;;3.47;;
20181;SDS011;10250;50.756;6.172;2022-12-08T10:29:39;12.87;;;3.77;;
20181;SDS011;10250;50.756;6.172;2022-12-08T10:31:40;13.83;;;3.53;;
20181;SDS011;10250;50.756;6.172;2022-12-08T10:33:42;16.60;;;4.70;;
20181;SDS011;10250;50.756;6.172;2022-12-08T10:37:58;11.50;;;3.37;;
20181;SDS011;10250;50.756;6.172;2022-12-08T10:44:13;14.73;;;3.77;;
20181;SDS011;10250;50.756;6.172;2022-12-08T10:46:19;13.27;;;4.10;;
20181;SDS011;10250;50.756;6.172;2022-12-08T10:48:23;11.67;;;3.53;;
20181;SDS011;10250;50.756;6.172;2022-12-08T10:50:35;13.97;;;3.83;;
20181;SDS011;10250;50.756;6.172;2022-12-08T10:52:40;14.47;;;4.37;;
20181;SDS011;10250;50.756;6.172;2022-12-08T10:54:41;15.10;;;3.60;;
20181;SDS011;10250;50.756;6.172;2022-12-08T10:56:42;12.33;;;3.60;;
20181;SDS011;10250;50.756;6.172;2022-12-08T10:59:12;14.53;;;3.93;;
20181;SDS011;10250;50.756;6.172;2022-12-08T11:03:20;16.53;;;4.40;;
20181;SDS011;10250;50.756;6.172;2022-12-08T11:05:23;12.93;;;3.03;;
20181;SDS011;10250;50.756;6.172;2022-12-08T11:07:25;16.40;;;4.33;;
20181;SDS011;10250;50.756;6.172;2022-12-08T11:09:35;12.10;;;3.77;;
20181;SDS011;10250;50.756;6.172;2022-12-08T11:11:43;13.77;;;3.57;;
20181;SDS011;10250;50.756;6.172;2022-12-08T11:13:44;12.80;;;3.80;;
20181;SDS011;10250;50.756;6.172;2022-12-08T11:15:47;13.00;;;3.33;;
20181;SDS011;10250;50.756;6.172;2022-12-08T11:17:58;13.47;;;3.93;;
20181;SDS011;10250;50.756;6.172;2022-12-08T11:26:31;15.97;;;4.40;;
20181;SDS011;10250;50.756;6.172;2022-12-08T11:28:32;13.63;;;3.87;;
20181;SDS011;10250;50.756;6.172;2022-12-08T11:30:34;12.97;;;3.63;;
20181;SDS011;10250;50.756;6.172;2022-12-08T11:32:36;12.77;;;3.53;;
20181;SDS011;10250;50.756;6.172;2022-12-08T11:34:50;14.23;;;4.13;;
20181;SDS011;10250;50.756;6.172;2022-12-08T11:36:53;14.17;;;3.63;;
20181;SDS011;10250;50.756;6.172;2022-12-08T11:38:58;17.83;;;3.03;;
20181;SDS011;10250;50.756;6.172;2022-12-08T11:41:21;13.83;;;4.17;;
20181;SDS011;10250;50.756;6.172;2022-12-08T11:43:44;11.67;;;3.23;;
20181;SDS011;10250;50.756;6.172;2022-12-08T11:45:42;12.60;;;3.50;;
20181;SDS011;10250;50.756;6.172;2022-12-08T11:47:44;13.17;;;3.43;;
20181;SDS011;10250;50.756;6.172;2022-12-08T11:49:47;15.13;;;3.80;;
20181;SDS011;10250;50.756;6.172;2022-12-08T11:54:19;11.90;;;2.70;;
20181;SDS011;10250;50.756;6.172;2022-12-08T11:56:27;13.57;;;3.13;;
20181;SDS011;10250;50.756;6.172;2022-12-08T11:58:44;12.10;;;3.13;;
20181;SDS011;10250;50.756;6.172;2022-12-08T12:00:45;13.30;;;3.43;;
20181;SDS011;10250;50.756;6.172;2022-12-08T12:02:48;15.50;;;3.17;;
20181;SDS011;10250;50.756;6.172;2022-12-08T12:05:00;13.33;;;3.47;;
20181;SDS011;10250;50.756;6.172;2022-12-08T12:07:07;12.93;;;3.70;;
20181;SDS011;10250;50.756;6.172;2022-12-08T12:11:34;13.37;;;3.20;;
20181;SDS011;10250;50.756;6.172;2022-12-08T12:14:08;10.30;;;2.87;;
20181;SDS011;10250;50.756;6.172;2022-12-08T12:20:50;12.90;;;3.47;;
20181;SDS011;10250;50.756;6.172;2022-12-08T12:22:55;12.93;;;3.27;;
20181;SDS011;10250;50.756;6.172;2022-12-08T12:24:57;11.20;;;2.90;;
20181;SDS011;10250;50.756;6.172;2022-12-08T12:29:00;10.60;;;3.10;;
20181;SDS011;10250;50.756;6.172;2022-12-08T12:31:07;15.70;;;3.67;;
20181;SDS011;10250;50.756;6.172;2022-12-08T12:33:10;14.10;;;3.70;;
20181;SDS011;10250;50.756;6.172;2022-12-08T12:35:15;7.93;;;2.30;;
20181;SDS011;10250;50.756;6.172;2022-12-08T12:39:27;14.40;;;3.73;;
20181;SDS011;10250;50.756;6.172;2022-12-08T12:41:42;12.40;;;3.10;;
20181;SDS011;10250;50.756;6.172;2022-12-08T12:44:05;12.70;;;3.60;;
20181;SDS011;10250;50.756;6.172;2022-12-08T12:48:23;12.47;;;2.60;;
20181;SDS011;10250;50.756;6.172;2022-12-08T12:52:38;9.50;;;2.60;;
20181;SDS011;10250;50.756;6.172;2022-12-08T12:55:21;10.83;;;2.83;;
20181;SDS011;10250;50.756;6.172;2022-12-08T13:01:36;11.30;;;2.93;;
20181;SDS011;10250;50.756;6.172;2022-12-08T13:03:43;9.70;;;2.37;;
20181;SDS011;10250;50.756;6.172;2022-12-08T13:05:49;11.17;;;3.13;;
20181;SDS011;10250;50.756;6.172;2022-12-08T13:08:07;11.50;;;3.30;;
20181;SDS011;10250;50.756;6.172;2022-12-08T13:12:18;12.60;;;2.77;;
20181;SDS011;10250;50.756;6.172;2022-12-08T13:16:59;10.37;;;2.67;;
20181;SDS011;10250;50.756;6.172;2022-12-08T13:19:02;11.63;;;2.47;;
20181;SDS011;10250;50.756;6.172;2022-12-08T13:23:25;11.00;;;2.83;;
20181;SDS011;10250;50.756;6.172;2022-12-08T13:27:39;7.47;;;2.23;;
20181;SDS011;10250;50.756;6.172;2022-12-08T13:30:32;7.30;;;2.07;;
20181;SDS011;10250;50.756;6.172;2022-12-08T13:36:34;7.97;;;2.23;;
20181;SDS011;10250;50.756;6.172;2022-12-08T13:38:37;8.60;;;2.13;;
20181;SDS011;10250;50.756;6.172;2022-12-08T13:40:38;8.20;;;2.30;;
20181;SDS011;10250;50.756;6.172;2022-12-08T13:42:57;8.97;;;2.27;;
20181;SDS011;10250;50.756;6.172;2022-12-08T13:45:03;8.00;;;2.70;;
20181;SDS011;10250;50.756;6.172;2022-12-08T13:47:05;8.90;;;2.17;;
20181;SDS011;10250;50.756;6.172;2022-12-08T13:49:10;10.07;;;2.30;;